sensor_id;sensor_type;location;lat;lon;timestamp;temperature;humidity
22364;DHT22;11349;53.412;-1.328;2023-08-12T00:01:11;21.40;1.00
22364;DHT22;11349;53.412;-1.328;2023-08-12T00:03:37;21.20;1.00
22364;DHT22;11349;53.412;-1.328;2023-08-12T00:06:03;21.30;97.10
22364;DHT22;11349;53.412;-1.328;2023-08-12T00:08:31;21.30;99.90
22364;DHT22;11349;53.412;-1.328;2023-08-12T00:10:56;21.30;28.90
22364;DHT22;11349;53.412;-1.328;2023-08-12T00:13:22;21.30;17.70
22364;DHT22;11349;53.412;-1.328;2023-08-12T00:15:48;21.20;99.90
22364;DHT22;11349;53.412;-1.328;2023-08-12T00:18:14;21.40;1.00
22364;DHT22;11349;53.412;-1.328;2023-08-12T00:20:41;21.50;99.90
22364;DHT22;11349;53.412;-1.328;2023-08-12T00:23:08;21.50;1.00
22364;DHT22;11349;53.412;-1.328;2023-08-12T00:25:34;21.60;58.50
22364;DHT22;11349;53.412;-1.328;2023-08-12T00:27:59;21.60;99.90
22364;DHT22;11349;53.412;-1.328;2023-08-12T00:30:25;21.40;1.00
22364;DHT22;11349;53.412;-1.328;2023-08-12T00:32:51;21.50;99.90
22364;DHT22;11349;53.412;-1.328;2023-08-12T00:35:16;21.40;99.90
22364;DHT22;11349;53.412;-1.328;2023-08-12T00:37:42;21.30;99.90
22364;DHT22;11349;53.412;-1.328;2023-08-12T00:40:08;21.30;99.90
22364;DHT22;11349;53.412;-1.328;2023-08-12T00:42:35;21.20;99.90
22364;DHT22;11349;53.412;-1.328;2023-08-12T00:45:00;21.10;31.40
22364;DHT22;11349;53.412;-1.328;2023-08-12T00:47:28;21.10;99.90
22364;DHT22;11349;53.412;-1.328;2023-08-12T00:49:55;21.00;96.00
22364;DHT22;11349;53.412;-1.328;2023-08-12T00:52:23;20.80;1.00
22364;DHT22;11349;53.412;-1.328;2023-08-12T00:54:49;20.70;99.90
22364;DHT22;11349;53.412;-1.328;2023-08-12T00:57:15;20.30;99.90
22364;DHT22;11349;53.412;-1.328;2023-08-12T00:59:41;20.30;86.20
22364;DHT22;11349;53.412;-1.328;2023-08-12T01:02:09;19.90;99.90
22364;DHT22;11349;53.412;-1.328;2023-08-12T01:04:36;19.70;99.90
22364;DHT22;11349;53.412;-1.328;2023-08-12T01:07:01;19.90;1.00
22364;DHT22;11349;53.412;-1.328;2023-08-12T01:09:29;20.30;99.90
22364;DHT22;11349;53.412;-1.328;2023-08-12T01:12:06;19.80;99.90
22364;DHT22;11349;53.412;-1.328;2023-08-12T01:17:28;19.20;99.90
22364;DHT22;11349;53.412;-1.328;2023-08-12T01:19:56;19.10;99.90
22364;DHT22;11349;53.412;-1.328;2023-08-12T01:22:22;19.50;1.00
22364;DHT22;11349;53.412;-1.328;2023-08-12T01:24:49;19.50;1.00
22364;DHT22;11349;53.412;-1.328;2023-08-12T01:27:16;19.50;1.00
22364;DHT22;11349;53.412;-1.328;2023-08-12T01:29:45;19.70;1.00
22364;DHT22;11349;53.412;-1.328;2023-08-12T01:32:56;19.80;99.90
22364;DHT22;11349;53.412;-1.328;2023-08-12T01:35:53;19.90;99.90
22364;DHT22;11349;53.412;-1.328;2023-08-12T01:38:21;20.30;1.00
22364;DHT22;11349;53.412;-1.328;2023-08-12T01:40:49;20.40;10.10
22364;DHT22;11349;53.412;-1.328;2023-08-12T01:43:18;20.50;99.90
22364;DHT22;11349;53.412;-1.328;2023-08-12T01:45:44;20.50;1.00
22364;DHT22;11349;53.412;-1.328;2023-08-12T01:48:10;20.40;99.90
22364;DHT22;11349;53.412;-1.328;2023-08-12T01:50:36;20.40;1.00
22364;DHT22;11349;53.412;-1.328;2023-08-12T01:53:02;20.20;1.00
22364;DHT22;11349;53.412;-1.328;2023-08-12T01:55:27;20.50;60.80
22364;DHT22;11349;53.412;-1.328;2023-08-12T01:57:53;20.50;18.90
22364;DHT22;11349;53.412;-1.328;2023-08-12T02:00:19;20.00;99.90
22364;DHT22;11349;53.412;-1.328;2023-08-12T02:02:45;20.10;1.00
22364;DHT22;11349;53.412;-1.328;2023-08-12T02:05:14;20.10;99.90
22364;DHT22;11349;53.412;-1.328;2023-08-12T02:07:40;19.90;1.00
22364;DHT22;11349;53.412;-1.328;2023-08-12T02:10:06;19.90;1.00
22364;DHT22;11349;53.412;-1.328;2023-08-12T02:12:31;19.90;1.00
22364;DHT22;11349;53.412;-1.328;2023-08-12T02:14:57;19.80;1.00
22364;DHT22;11349;53.412;-1.328;2023-08-12T02:17:23;20.10;1.00
22364;DHT22;11349;53.412;-1.328;2023-08-12T02:19:49;20.00;1.00
22364;DHT22;11349;53.412;-1.328;2023-08-12T02:22:14;19.70;1.00
22364;DHT22;11349;53.412;-1.328;2023-08-12T02:24:40;19.60;21.40
22364;DHT22;11349;53.412;-1.328;2023-08-12T02:27:06;19.80;1.00
22364;DHT22;11349;53.412;-1.328;2023-08-12T02:29:32;20.10;1.00
22364;DHT22;11349;53.412;-1.328;2023-08-12T02:31:58;19.70;1.00
22364;DHT22;11349;53.412;-1.328;2023-08-12T02:34:24;19.60;99.90
22364;DHT22;11349;53.412;-1.328;2023-08-12T02:36:49;19.60;1.00
22364;DHT22;11349;53.412;-1.328;2023-08-12T02:39:15;19.60;99.90
22364;DHT22;11349;53.412;-1.328;2023-08-12T02:41:41;19.80;99.90
22364;DHT22;11349;53.412;-1.328;2023-08-12T02:44:07;19.50;99.90
22364;DHT22;11349;53.412;-1.328;2023-08-12T02:46:32;19.20;1.00
22364;DHT22;11349;53.412;-1.328;2023-08-12T02:48:58;19.00;99.90
22364;DHT22;11349;53.412;-1.328;2023-08-12T02:51:24;19.00;99.90
22364;DHT22;11349;53.412;-1.328;2023-08-12T02:53:50;18.50;97.80
22364;DHT22;11349;53.412;-1.328;2023-08-12T02:56:15;19.00;99.90
22364;DHT22;11349;53.412;-1.328;2023-08-12T02:58:41;19.10;99.90
22364;DHT22;11349;53.412;-1.328;2023-08-12T03:01:10;19.10;99.90
22364;DHT22;11349;53.412;-1.328;2023-08-12T03:03:36;19.00;99.90
22364;DHT22;11349;53.412;-1.328;2023-08-12T03:06:01;19.00;99.90
22364;DHT22;11349;53.412;-1.328;2023-08-12T03:08:27;18.90;99.90
22364;DHT22;11349;53.412;-1.328;2023-08-12T03:11:02;19.20;99.90
22364;DHT22;11349;53.412;-1.328;2023-08-12T03:13:29;19.20;99.90
22364;DHT22;11349;53.412;-1.328;2023-08-12T03:15:55;19.30;71.60
22364;DHT22;11349;53.412;-1.328;2023-08-12T03:18:21;19.30;1.00
22364;DHT22;11349;53.412;-1.328;2023-08-12T03:20:47;19.20;99.90
22364;DHT22;11349;53.412;-1.328;2023-08-12T03:23:13;18.50;99.90
22364;DHT22;11349;53.412;-1.328;2023-08-12T03:25:38;18.50;99.90
22364;DHT22;11349;53.412;-1.328;2023-08-12T03:28:04;18.60;99.90
22364;DHT22;11349;53.412;-1.328;2023-08-12T03:30:30;18.90;1.00
22364;DHT22;11349;53.412;-1.328;2023-08-12T03:32:56;18.90;99.90
22364;DHT22;11349;53.412;-1.328;2023-08-12T03:35:22;18.50;1.00
22364;DHT22;11349;53.412;-1.328;2023-08-12T03:37:48;18.10;99.90
22364;DHT22;11349;53.412;-1.328;2023-08-12T03:40:14;18.50;99.90
22364;DHT22;11349;53.412;-1.328;2023-08-12T03:42:39;18.50;39.00
22364;DHT22;11349;53.412;-1.328;2023-08-12T03:45:06;18.30;5.70
22364;DHT22;11349;53.412;-1.328;2023-08-12T03:47:32;18.00;1.00
22364;DHT22;11349;53.412;-1.328;2023-08-12T03:49:57;17.70;1.00
22364;DHT22;11349;53.412;-1.328;2023-08-12T03:52:23;17.90;99.90
22364;DHT22;11349;53.412;-1.328;2023-08-12T03:54:49;18.10;1.00
22364;DHT22;11349;53.412;-1.328;2023-08-12T03:57:15;18.60;1.00
22364;DHT22;11349;53.412;-1.328;2023-08-12T03:59:40;18.40;99.90
22364;DHT22;11349;53.412;-1.328;2023-08-12T04:02:06;18.50;1.00
22364;DHT22;11349;53.412;-1.328;2023-08-12T04:04:32;18.10;99.90
22364;DHT22;11349;53.412;-1.328;2023-08-12T04:06:57;18.10;99.90
22364;DHT22;11349;53.412;-1.328;2023-08-12T04:09:23;18.10;99.90
22364;DHT22;11349;53.412;-1.328;2023-08-12T04:11:49;17.80;99.90
22364;DHT22;11349;53.412;-1.328;2023-08-12T04:14:15;18.30;87.90
22364;DHT22;11349;53.412;-1.328;2023-08-12T04:16:41;18.50;1.00
22364;DHT22;11349;53.412;-1.328;2023-08-12T04:19:06;18.60;99.90
22364;DHT22;11349;53.412;-1.328;2023-08-12T04:21:32;18.20;98.40
22364;DHT22;11349;53.412;-1.328;2023-08-12T04:23:58;18.20;99.90
22364;DHT22;11349;53.412;-1.328;2023-08-12T04:26:23;18.20;99.90
22364;DHT22;11349;53.412;-1.328;2023-08-12T04:28:49;17.70;99.90
22364;DHT22;11349;53.412;-1.328;2023-08-12T04:31:15;18.20;1.00
22364;DHT22;11349;53.412;-1.328;2023-08-12T04:33:41;18.00;99.90
22364;DHT22;11349;53.412;-1.328;2023-08-12T04:36:06;18.10;44.10
22364;DHT22;11349;53.412;-1.328;2023-08-12T04:38:32;18.30;1.00
22364;DHT22;11349;53.412;-1.328;2023-08-12T04:40:58;17.80;1.00
22364;DHT22;11349;53.412;-1.328;2023-08-12T04:43:24;17.60;99.90
22364;DHT22;11349;53.412;-1.328;2023-08-12T04:45:50;17.50;1.00
22364;DHT22;11349;53.412;-1.328;2023-08-12T04:48:15;17.40;99.90
22364;DHT22;11349;53.412;-1.328;2023-08-12T04:50:44;17.50;99.90
22364;DHT22;11349;53.412;-1.328;2023-08-12T04:53:10;17.20;99.90
22364;DHT22;11349;53.412;-1.328;2023-08-12T04:55:37;17.30;99.90
22364;DHT22;11349;53.412;-1.328;2023-08-12T04:58:03;17.10;11.30
22364;DHT22;11349;53.412;-1.328;2023-08-12T05:00:30;17.70;1.00
22364;DHT22;11349;53.412;-1.328;2023-08-12T05:02:55;17.80;66.40
22364;DHT22;11349;53.412;-1.328;2023-08-12T05:05:21;18.10;10.60
22364;DHT22;11349;53.412;-1.328;2023-08-12T05:07:49;18.00;99.90
22364;DHT22;11349;53.412;-1.328;2023-08-12T05:10:18;18.30;3.20
22364;DHT22;11349;53.412;-1.328;2023-08-12T05:12:44;18.60;1.00
22364;DHT22;11349;53.412;-1.328;2023-08-12T05:15:10;18.50;1.00
22364;DHT22;11349;53.412;-1.328;2023-08-12T05:17:36;18.50;99.90
22364;DHT22;11349;53.412;-1.328;2023-08-12T05:20:02;18.30;1.00
22364;DHT22;11349;53.412;-1.328;2023-08-12T05:22:29;18.40;1.00
22364;DHT22;11349;53.412;-1.328;2023-08-12T05:24:55;18.10;1.00
22364;DHT22;11349;53.412;-1.328;2023-08-12T05:27:21;18.30;99.90
22364;DHT22;11349;53.412;-1.328;2023-08-12T05:29:47;18.50;74.70
22364;DHT22;11349;53.412;-1.328;2023-08-12T05:32:13;18.90;99.90
22364;DHT22;11349;53.412;-1.328;2023-08-12T05:34:38;19.30;99.90
22364;DHT22;11349;53.412;-1.328;2023-08-12T05:37:04;19.30;99.90
22364;DHT22;11349;53.412;-1.328;2023-08-12T05:39:30;19.40;99.90
22364;DHT22;11349;53.412;-1.328;2023-08-12T05:41:56;19.20;99.90
22364;DHT22;11349;53.412;-1.328;2023-08-12T05:44:21;19.10;99.90
22364;DHT22;11349;53.412;-1.328;2023-08-12T05:46:47;18.80;99.90
22364;DHT22;11349;53.412;-1.328;2023-08-12T05:49:13;18.70;99.90
22364;DHT22;11349;53.412;-1.328;2023-08-12T05:51:39;18.90;1.00
22364;DHT22;11349;53.412;-1.328;2023-08-12T05:54:05;18.50;99.90
22364;DHT22;11349;53.412;-1.328;2023-08-12T05:56:30;18.20;99.90
22364;DHT22;11349;53.412;-1.328;2023-08-12T05:58:56;18.80;99.90
22364;DHT22;11349;53.412;-1.328;2023-08-12T06:01:22;19.30;1.00
22364;DHT22;11349;53.412;-1.328;2023-08-12T06:03:47;19.30;99.90
22364;DHT22;11349;53.412;-1.328;2023-08-12T06:06:13;19.60;99.90
22364;DHT22;11349;53.412;-1.328;2023-08-12T06:08:39;19.80;1.00
22364;DHT22;11349;53.412;-1.328;2023-08-12T06:11:04;19.80;99.90
22364;DHT22;11349;53.412;-1.328;2023-08-12T06:13:30;20.00;1.00
22364;DHT22;11349;53.412;-1.328;2023-08-12T06:15:56;19.80;1.00
22364;DHT22;11349;53.412;-1.328;2023-08-12T06:18:22;19.90;1.00
22364;DHT22;11349;53.412;-1.328;2023-08-12T06:20:51;19.80;15.30
22364;DHT22;11349;53.412;-1.328;2023-08-12T06:23:17;19.90;99.90
22364;DHT22;11349;53.412;-1.328;2023-08-12T06:25:42;19.90;1.00
22364;DHT22;11349;53.412;-1.328;2023-08-12T06:28:08;20.00;1.00
22364;DHT22;11349;53.412;-1.328;2023-08-12T06:30:35;20.10;81.10
22364;DHT22;11349;53.412;-1.328;2023-08-12T06:33:01;20.20;84.90
22364;DHT22;11349;53.412;-1.328;2023-08-12T06:35:27;20.10;99.90
22364;DHT22;11349;53.412;-1.328;2023-08-12T06:37:52;20.20;1.00
22364;DHT22;11349;53.412;-1.328;2023-08-12T06:40:18;20.40;26.20
22364;DHT22;11349;53.412;-1.328;2023-08-12T06:42:44;20.40;23.70
22364;DHT22;11349;53.412;-1.328;2023-08-12T06:45:10;20.50;99.90
22364;DHT22;11349;53.412;-1.328;2023-08-12T06:47:36;20.60;99.90
22364;DHT22;11349;53.412;-1.328;2023-08-12T06:50:02;20.60;99.90
22364;DHT22;11349;53.412;-1.328;2023-08-12T06:52:28;20.90;99.90
22364;DHT22;11349;53.412;-1.328;2023-08-12T06:54:54;20.70;99.90
22364;DHT22;11349;53.412;-1.328;2023-08-12T06:57:19;20.70;99.90
22364;DHT22;11349;53.412;-1.328;2023-08-12T06:59:45;20.70;99.90
22364;DHT22;11349;53.412;-1.328;2023-08-12T07:02:12;20.90;99.90
22364;DHT22;11349;53.412;-1.328;2023-08-12T07:04:37;20.70;1.00
22364;DHT22;11349;53.412;-1.328;2023-08-12T07:07:03;20.80;99.90
22364;DHT22;11349;53.412;-1.328;2023-08-12T07:09:29;20.60;99.90
22364;DHT22;11349;53.412;-1.328;2023-08-12T07:11:55;20.90;99.90
22364;DHT22;11349;53.412;-1.328;2023-08-12T07:14:20;20.80;99.90
22364;DHT22;11349;53.412;-1.328;2023-08-12T07:16:46;21.00;99.90
22364;DHT22;11349;53.412;-1.328;2023-08-12T07:19:12;20.90;99.90
22364;DHT22;11349;53.412;-1.328;2023-08-12T07:21:37;21.00;99.90
22364;DHT22;11349;53.412;-1.328;2023-08-12T07:24:03;21.00;99.90
22364;DHT22;11349;53.412;-1.328;2023-08-12T07:26:29;21.00;99.90
22364;DHT22;11349;53.412;-1.328;2023-08-12T07:28:56;21.00;99.90
22364;DHT22;11349;53.412;-1.328;2023-08-12T07:31:22;21.00;99.90
22364;DHT22;11349;53.412;-1.328;2023-08-12T07:33:48;21.00;99.90
22364;DHT22;11349;53.412;-1.328;2023-08-12T07:36:14;21.00;1.00
22364;DHT22;11349;53.412;-1.328;2023-08-12T07:38:39;21.00;99.90
22364;DHT22;11349;53.412;-1.328;2023-08-12T07:41:05;21.20;99.90
22364;DHT22;11349;53.412;-1.328;2023-08-12T07:43:31;21.20;85.80
22364;DHT22;11349;53.412;-1.328;2023-08-12T07:45:56;21.10;99.90
22364;DHT22;11349;53.412;-1.328;2023-08-12T07:48:22;21.20;99.90
22364;DHT22;11349;53.412;-1.328;2023-08-12T07:50:56;21.20;99.90
22364;DHT22;11349;53.412;-1.328;2023-08-12T07:53:22;21.30;99.90
22364;DHT22;11349;53.412;-1.328;2023-08-12T07:55:47;21.40;1.00
22364;DHT22;11349;53.412;-1.328;2023-08-12T07:58:13;21.40;1.00
22364;DHT22;11349;53.412;-1.328;2023-08-12T08:00:39;21.40;1.00
22364;DHT22;11349;53.412;-1.328;2023-08-12T08:03:05;21.30;1.00
22364;DHT22;11349;53.412;-1.328;2023-08-12T08:05:31;21.30;1.00
22364;DHT22;11349;53.412;-1.328;2023-08-12T08:07:56;21.40;1.00
22364;DHT22;11349;53.412;-1.328;2023-08-12T08:10:22;21.40;1.00
22364;DHT22;11349;53.412;-1.328;2023-08-12T08:12:48;21.40;99.90
22364;DHT22;11349;53.412;-1.328;2023-08-12T08:15:14;21.40;1.00
22364;DHT22;11349;53.412;-1.328;2023-08-12T08:17:39;21.40;1.00
22364;DHT22;11349;53.412;-1.328;2023-08-12T08:20:06;21.50;1.00
22364;DHT22;11349;53.412;-1.328;2023-08-12T08:22:32;21.50;99.90
22364;DHT22;11349;53.412;-1.328;2023-08-12T08:24:58;21.50;1.00
22364;DHT22;11349;53.412;-1.328;2023-08-12T08:27:24;21.60;1.00
22364;DHT22;11349;53.412;-1.328;2023-08-12T08:29:50;21.60;99.90
22364;DHT22;11349;53.412;-1.328;2023-08-12T08:32:15;21.80;99.90
22364;DHT22;11349;53.412;-1.328;2023-08-12T08:34:42;21.80;1.00
22364;DHT22;11349;53.412;-1.328;2023-08-12T08:37:08;21.90;99.90
22364;DHT22;11349;53.412;-1.328;2023-08-12T08:39:34;21.80;99.90
22364;DHT22;11349;53.412;-1.328;2023-08-12T08:42:00;21.90;99.90
22364;DHT22;11349;53.412;-1.328;2023-08-12T08:44:29;21.90;99.90
22364;DHT22;11349;53.412;-1.328;2023-08-12T08:46:58;21.50;99.90
22364;DHT22;11349;53.412;-1.328;2023-08-12T08:49:25;21.80;99.90
22364;DHT22;11349;53.412;-1.328;2023-08-12T08:51:53;21.90;99.90
22364;DHT22;11349;53.412;-1.328;2023-08-12T08:54:19;22.00;99.90
22364;DHT22;11349;53.412;-1.328;2023-08-12T08:56:46;21.90;48.90
22364;DHT22;11349;53.412;-1.328;2023-08-12T08:59:13;21.90;1.00
22364;DHT22;11349;53.412;-1.328;2023-08-12T09:01:40;22.00;1.00
22364;DHT22;11349;53.412;-1.328;2023-08-12T09:04:07;22.00;6.50
22364;DHT22;11349;53.412;-1.328;2023-08-12T09:06:34;22.00;1.00
22364;DHT22;11349;53.412;-1.328;2023-08-12T09:09:02;22.10;1.00
22364;DHT22;11349;53.412;-1.328;2023-08-12T09:11:31;22.00;99.90
22364;DHT22;11349;53.412;-1.328;2023-08-12T09:13:58;22.00;1.00
22364;DHT22;11349;53.412;-1.328;2023-08-12T09:16:24;22.00;1.00
22364;DHT22;11349;53.412;-1.328;2023-08-12T09:18:55;22.10;1.00
22364;DHT22;11349;53.412;-1.328;2023-08-12T09:21:21;21.80;99.90
22364;DHT22;11349;53.412;-1.328;2023-08-12T09:23:48;22.00;6.90
22364;DHT22;11349;53.412;-1.328;2023-08-12T09:26:20;22.20;1.00
22364;DHT22;11349;53.412;-1.328;2023-08-12T09:28:47;22.20;1.00
22364;DHT22;11349;53.412;-1.328;2023-08-12T09:31:26;22.10;1.00
22364;DHT22;11349;53.412;-1.328;2023-08-12T09:33:52;22.20;1.00
22364;DHT22;11349;53.412;-1.328;2023-08-12T09:36:18;22.20;1.00
22364;DHT22;11349;53.412;-1.328;2023-08-12T09:38:47;22.20;1.00
22364;DHT22;11349;53.412;-1.328;2023-08-12T09:41:13;22.20;1.00
22364;DHT22;11349;53.412;-1.328;2023-08-12T09:43:43;22.30;1.00
22364;DHT22;11349;53.412;-1.328;2023-08-12T09:46:12;22.30;99.90
22364;DHT22;11349;53.412;-1.328;2023-08-12T09:48:39;22.30;1.00
22364;DHT22;11349;53.412;-1.328;2023-08-12T09:51:05;22.30;1.00
22364;DHT22;11349;53.412;-1.328;2023-08-12T09:53:33;22.40;99.90
22364;DHT22;11349;53.412;-1.328;2023-08-12T09:56:09;22.40;99.90
22364;DHT22;11349;53.412;-1.328;2023-08-12T09:58:37;22.30;99.90
22364;DHT22;11349;53.412;-1.328;2023-08-12T10:01:03;22.30;99.90
22364;DHT22;11349;53.412;-1.328;2023-08-12T10:03:31;22.30;99.90
22364;DHT22;11349;53.412;-1.328;2023-08-12T10:05:59;22.30;99.90
22364;DHT22;11349;53.412;-1.328;2023-08-12T10:08:27;22.30;99.90
22364;DHT22;11349;53.412;-1.328;2023-08-12T10:10:53;22.40;99.90
22364;DHT22;11349;53.412;-1.328;2023-08-12T10:13:20;22.40;99.90
22364;DHT22;11349;53.412;-1.328;2023-08-12T10:15:47;22.40;99.90
22364;DHT22;11349;53.412;-1.328;2023-08-12T10:18:13;22.40;1.00
22364;DHT22;11349;53.412;-1.328;2023-08-12T10:20:40;22.30;99.90
22364;DHT22;11349;53.412;-1.328;2023-08-12T10:23:07;22.30;99.90
22364;DHT22;11349;53.412;-1.328;2023-08-12T10:25:37;22.50;99.90
22364;DHT22;11349;53.412;-1.328;2023-08-12T10:28:06;22.50;99.90
22364;DHT22;11349;53.412;-1.328;2023-08-12T10:30:33;22.50;99.90
22364;DHT22;11349;53.412;-1.328;2023-08-12T10:33:00;22.50;1.00
22364;DHT22;11349;53.412;-1.328;2023-08-12T10:35:46;22.40;68.10
22364;DHT22;11349;53.412;-1.328;2023-08-12T10:38:20;22.50;96.60
22364;DHT22;11349;53.412;-1.328;2023-08-12T10:40:46;22.50;82.30
22364;DHT22;11349;53.412;-1.328;2023-08-12T10:43:13;22.30;99.90
22364;DHT22;11349;53.412;-1.328;2023-08-12T10:45:57;22.50;31.90
22364;DHT22;11349;53.412;-1.328;2023-08-12T10:48:26;22.50;4.00
22364;DHT22;11349;53.412;-1.328;2023-08-12T10:50:58;22.50;1.00
22364;DHT22;11349;53.412;-1.328;2023-08-12T10:53:25;22.60;1.00
22364;DHT22;11349;53.412;-1.328;2023-08-12T10:56:00;22.60;1.00
22364;DHT22;11349;53.412;-1.328;2023-08-12T10:58:45;22.60;1.00
22364;DHT22;11349;53.412;-1.328;2023-08-12T11:01:17;22.60;1.00
22364;DHT22;11349;53.412;-1.328;2023-08-12T11:03:43;22.70;1.00
22364;DHT22;11349;53.412;-1.328;2023-08-12T11:06:13;22.70;1.00
22364;DHT22;11349;53.412;-1.328;2023-08-12T11:08:54;22.70;1.00
22364;DHT22;11349;53.412;-1.328;2023-08-12T11:11:25;22.70;1.00
22364;DHT22;11349;53.412;-1.328;2023-08-12T11:14:14;22.70;99.90
22364;DHT22;11349;53.412;-1.328;2023-08-12T11:16:43;22.70;1.00
22364;DHT22;11349;53.412;-1.328;2023-08-12T11:19:08;22.70;99.90
22364;DHT22;11349;53.412;-1.328;2023-08-12T11:21:36;22.80;1.00
22364;DHT22;11349;53.412;-1.328;2023-08-12T11:24:02;22.80;1.00
22364;DHT22;11349;53.412;-1.328;2023-08-12T11:26:28;22.80;99.90
22364;DHT22;11349;53.412;-1.328;2023-08-12T11:28:54;22.50;99.90
22364;DHT22;11349;53.412;-1.328;2023-08-12T11:31:20;22.80;1.00
22364;DHT22;11349;53.412;-1.328;2023-08-12T11:33:46;22.80;99.90
22364;DHT22;11349;53.412;-1.328;2023-08-12T11:36:13;22.80;99.90
22364;DHT22;11349;53.412;-1.328;2023-08-12T11:38:41;22.80;99.90
22364;DHT22;11349;53.412;-1.328;2023-08-12T11:41:07;22.90;99.90
22364;DHT22;11349;53.412;-1.328;2023-08-12T11:43:33;22.80;99.90
22364;DHT22;11349;53.412;-1.328;2023-08-12T11:45:59;22.90;99.90
22364;DHT22;11349;53.412;-1.328;2023-08-12T11:48:27;22.90;99.90
22364;DHT22;11349;53.412;-1.328;2023-08-12T11:50:53;23.00;99.90
22364;DHT22;11349;53.412;-1.328;2023-08-12T11:53:19;23.00;99.90
22364;DHT22;11349;53.412;-1.328;2023-08-12T11:55:45;23.00;99.90
22364;DHT22;11349;53.412;-1.328;2023-08-12T11:58:13;23.00;99.90
22364;DHT22;11349;53.412;-1.328;2023-08-12T12:00:39;23.00;99.90
22364;DHT22;11349;53.412;-1.328;2023-08-12T12:03:05;23.00;99.90
22364;DHT22;11349;53.412;-1.328;2023-08-12T12:05:32;23.00;99.90
22364;DHT22;11349;53.412;-1.328;2023-08-12T12:07:59;23.10;99.90
22364;DHT22;11349;53.412;-1.328;2023-08-12T12:10:30;23.00;99.90
22364;DHT22;11349;53.412;-1.328;2023-08-12T12:12:56;23.00;99.90
22364;DHT22;11349;53.412;-1.328;2023-08-12T12:15:23;23.00;99.90
22364;DHT22;11349;53.412;-1.328;2023-08-12T12:17:52;23.10;99.90
22364;DHT22;11349;53.412;-1.328;2023-08-12T12:20:18;23.10;99.90
22364;DHT22;11349;53.412;-1.328;2023-08-12T12:22:47;23.00;99.90
22364;DHT22;11349;53.412;-1.328;2023-08-12T12:25:15;23.10;99.90
22364;DHT22;11349;53.412;-1.328;2023-08-12T12:27:42;23.10;99.90
22364;DHT22;11349;53.412;-1.328;2023-08-12T12:30:10;23.10;99.90
22364;DHT22;11349;53.412;-1.328;2023-08-12T12:32:37;23.10;99.90
22364;DHT22;11349;53.412;-1.328;2023-08-12T12:35:03;23.10;99.90
22364;DHT22;11349;53.412;-1.328;2023-08-12T12:37:29;23.10;99.90
22364;DHT22;11349;53.412;-1.328;2023-08-12T12:39:55;23.10;99.90
22364;DHT22;11349;53.412;-1.328;2023-08-12T12:42:21;23.10;99.90
22364;DHT22;11349;53.412;-1.328;2023-08-12T12:44:47;23.10;99.90
22364;DHT22;11349;53.412;-1.328;2023-08-12T12:47:12;23.10;99.90
22364;DHT22;11349;53.412;-1.328;2023-08-12T12:49:39;23.10;99.90
22364;DHT22;11349;53.412;-1.328;2023-08-12T12:52:07;23.10;99.90
22364;DHT22;11349;53.412;-1.328;2023-08-12T12:54:32;23.10;99.90
22364;DHT22;11349;53.412;-1.328;2023-08-12T12:56:58;23.10;99.90
22364;DHT22;11349;53.412;-1.328;2023-08-12T12:59:24;23.10;99.90
22364;DHT22;11349;53.412;-1.328;2023-08-12T13:01:50;23.10;99.90
22364;DHT22;11349;53.412;-1.328;2023-08-12T13:04:16;23.10;99.90
22364;DHT22;11349;53.412;-1.328;2023-08-12T13:06:41;23.10;99.90
22364;DHT22;11349;53.412;-1.328;2023-08-12T13:09:07;23.10;99.90
22364;DHT22;11349;53.412;-1.328;2023-08-12T13:11:33;23.10;99.90
22364;DHT22;11349;53.412;-1.328;2023-08-12T13:14:03;23.20;99.90
22364;DHT22;11349;53.412;-1.328;2023-08-12T13:16:29;23.20;99.90
22364;DHT22;11349;53.412;-1.328;2023-08-12T13:18:56;23.20;97.20
22364;DHT22;11349;53.412;-1.328;2023-08-12T13:21:24;23.10;99.90
22364;DHT22;11349;53.412;-1.328;2023-08-12T13:23:49;23.10;99.90
22364;DHT22;11349;53.412;-1.328;2023-08-12T13:26:15;23.10;99.90
22364;DHT22;11349;53.412;-1.328;2023-08-12T13:28:41;23.10;99.90
22364;DHT22;11349;53.412;-1.328;2023-08-12T13:31:07;23.10;99.90
22364;DHT22;11349;53.412;-1.328;2023-08-12T13:33:34;23.10;99.90
22364;DHT22;11349;53.412;-1.328;2023-08-12T13:35:59;23.10;99.90
22364;DHT22;11349;53.412;-1.328;2023-08-12T13:38:25;23.10;99.90
22364;DHT22;11349;53.412;-1.328;2023-08-12T13:40:51;23.10;99.90
22364;DHT22;11349;53.412;-1.328;2023-08-12T13:43:17;23.10;99.90
22364;DHT22;11349;53.412;-1.328;2023-08-12T13:45:42;23.20;99.90
22364;DHT22;11349;53.412;-1.328;2023-08-12T13:48:08;23.20;99.90
22364;DHT22;11349;53.412;-1.328;2023-08-12T13:50:34;23.10;99.90
22364;DHT22;11349;53.412;-1.328;2023-08-12T13:52:59;23.20;99.90
22364;DHT22;11349;53.412;-1.328;2023-08-12T13:55:26;23.30;99.90
22364;DHT22;11349;53.412;-1.328;2023-08-12T13:57:51;23.20;99.90
22364;DHT22;11349;53.412;-1.328;2023-08-12T14:00:18;23.20;99.90
22364;DHT22;11349;53.412;-1.328;2023-08-12T14:02:44;23.30;99.90
22364;DHT22;11349;53.412;-1.328;2023-08-12T14:05:10;23.20;99.90
22364;DHT22;11349;53.412;-1.328;2023-08-12T14:07:36;23.30;99.90
22364;DHT22;11349;53.412;-1.328;2023-08-12T14:10:04;23.30;99.90
22364;DHT22;11349;53.412;-1.328;2023-08-12T14:12:30;23.30;99.90
22364;DHT22;11349;53.412;-1.328;2023-08-12T14:14:56;23.30;99.90
22364;DHT22;11349;53.412;-1.328;2023-08-12T14:17:21;23.30;99.90
22364;DHT22;11349;53.412;-1.328;2023-08-12T14:19:49;23.30;99.90
22364;DHT22;11349;53.412;-1.328;2023-08-12T14:22:25;23.30;99.90
22364;DHT22;11349;53.412;-1.328;2023-08-12T14:24:51;23.30;99.90
22364;DHT22;11349;53.412;-1.328;2023-08-12T14:27:17;23.30;99.90
22364;DHT22;11349;53.412;-1.328;2023-08-12T14:29:43;23.30;99.90
22364;DHT22;11349;53.412;-1.328;2023-08-12T14:32:10;23.40;99.90
22364;DHT22;11349;53.412;-1.328;2023-08-12T14:34:35;23.40;1.00
22364;DHT22;11349;53.412;-1.328;2023-08-12T14:37:02;23.30;99.90
22364;DHT22;11349;53.412;-1.328;2023-08-12T14:39:28;23.40;99.90
22364;DHT22;11349;53.412;-1.328;2023-08-12T14:41:54;23.30;99.90
22364;DHT22;11349;53.412;-1.328;2023-08-12T14:44:20;23.40;99.90
22364;DHT22;11349;53.412;-1.328;2023-08-12T14:46:45;23.40;99.90
22364;DHT22;11349;53.412;-1.328;2023-08-12T14:49:11;23.40;99.90
22364;DHT22;11349;53.412;-1.328;2023-08-12T14:51:37;23.40;99.90
22364;DHT22;11349;53.412;-1.328;2023-08-12T14:54:03;23.40;99.90
22364;DHT22;11349;53.412;-1.328;2023-08-12T14:56:29;23.40;99.90
22364;DHT22;11349;53.412;-1.328;2023-08-12T14:58:54;23.40;99.90
22364;DHT22;11349;53.412;-1.328;2023-08-12T15:01:20;23.40;99.90
22364;DHT22;11349;53.412;-1.328;2023-08-12T15:03:47;23.50;99.90
22364;DHT22;11349;53.412;-1.328;2023-08-12T15:06:12;23.50;99.90
22364;DHT22;11349;53.412;-1.328;2023-08-12T15:08:39;23.50;99.90
22364;DHT22;11349;53.412;-1.328;2023-08-12T15:11:07;23.40;1.00
22364;DHT22;11349;53.412;-1.328;2023-08-12T15:13:32;23.40;1.00
22364;DHT22;11349;53.412;-1.328;2023-08-12T15:15:58;23.50;1.00
22364;DHT22;11349;53.412;-1.328;2023-08-12T15:18:24;23.50;1.00
22364;DHT22;11349;53.412;-1.328;2023-08-12T15:20:50;23.50;1.00